sensor_id;sensor_type;location;lat;lon;timestamp;temperature;humidity
7240;DHT22;3661;53.288;10.458;2023-05-14T00:00:13;14.50;75.50
7240;DHT22;3661;53.288;10.458;2023-05-14T00:02:46;14.50;75.80
7240;DHT22;3661;53.288;10.458;2023-05-14T00:05:21;14.40;76.40
7240;DHT22;3661;53.288;10.458;2023-05-14T00:07:56;14.40;76.70
7240;DHT22;3661;53.288;10.458;2023-05-14T00:10:28;14.30;76.20
7240;DHT22;3661;53.288;10.458;2023-05-14T00:13:00;14.20;76.10
7240;DHT22;3661;53.288;10.458;2023-05-14T00:15:33;14.20;76.00
7240;DHT22;3661;53.288;10.458;2023-05-14T00:18:06;14.20;75.90
7240;DHT22;3661;53.288;10.458;2023-05-14T00:20:43;14.10;75.80
7240;DHT22;3661;53.288;10.458;2023-05-14T00:23:18;14.10;75.70
7240;DHT22;3661;53.288;10.458;2023-05-14T00:25:50;14.10;75.70
7240;DHT22;3661;53.288;10.458;2023-05-14T00:28:22;14.00;75.50
7240;DHT22;3661;53.288;10.458;2023-05-14T00:30:55;14.00;75.50
7240;DHT22;3661;53.288;10.458;2023-05-14T00:33:27;14.00;75.40
7240;DHT22;3661;53.288;10.458;2023-05-14T00:36:04;13.90;75.40
7240;DHT22;3661;53.288;10.458;2023-05-14T00:38:36;13.90;75.40
7240;DHT22;3661;53.288;10.458;2023-05-14T00:41:09;13.90;75.50
7240;DHT22;3661;53.288;10.458;2023-05-14T00:43:41;13.80;75.50
7240;DHT22;3661;53.288;10.458;2023-05-14T00:46:13;13.80;75.50
7240;DHT22;3661;53.288;10.458;2023-05-14T00:48:46;13.80;75.60
7240;DHT22;3661;53.288;10.458;2023-05-14T00:51:22;13.70;75.50
7240;DHT22;3661;53.288;10.458;2023-05-14T00:53:56;13.70;75.70
7240;DHT22;3661;53.288;10.458;2023-05-14T00:56:29;13.60;75.60
7240;DHT22;3661;53.288;10.458;2023-05-14T00:59:01;13.60;75.60
7240;DHT22;3661;53.288;10.458;2023-05-14T01:01:33;13.60;75.70
7240;DHT22;3661;53.288;10.458;2023-05-14T01:04:06;13.50;75.60
7240;DHT22;3661;53.288;10.458;2023-05-14T01:06:49;13.50;75.70
7240;DHT22;3661;53.288;10.458;2023-05-14T01:09:28;13.40;75.80
7240;DHT22;3661;53.288;10.458;2023-05-14T01:12:16;13.40;75.90
7240;DHT22;3661;53.288;10.458;2023-05-14T01:14:55;13.40;75.90
7240;DHT22;3661;53.288;10.458;2023-05-14T01:17:29;13.30;75.90
7240;DHT22;3661;53.288;10.458;2023-05-14T01:20:03;13.30;75.90
7240;DHT22;3661;53.288;10.458;2023-05-14T01:22:37;13.20;75.80
7240;DHT22;3661;53.288;10.458;2023-05-14T01:25:09;13.20;75.90
7240;DHT22;3661;53.288;10.458;2023-05-14T01:27:49;13.10;75.80
7240;DHT22;3661;53.288;10.458;2023-05-14T01:30:28;13.10;75.80
7240;DHT22;3661;53.288;10.458;2023-05-14T01:33:04;13.00;75.80
7240;DHT22;3661;53.288;10.458;2023-05-14T01:35:37;13.00;75.80
7240;DHT22;3661;53.288;10.458;2023-05-14T01:38:13;13.00;75.90
7240;DHT22;3661;53.288;10.458;2023-05-14T01:40:49;13.00;75.80
7240;DHT22;3661;53.288;10.458;2023-05-14T01:43:23;12.90;75.80
7240;DHT22;3661;53.288;10.458;2023-05-14T01:45:56;12.90;75.80
7240;DHT22;3661;53.288;10.458;2023-05-14T01:48:29;12.80;75.80
7240;DHT22;3661;53.288;10.458;2023-05-14T01:51:01;12.80;76.00
7240;DHT22;3661;53.288;10.458;2023-05-14T01:53:36;12.80;76.00
7240;DHT22;3661;53.288;10.458;2023-05-14T01:56:08;12.80;76.10
7240;DHT22;3661;53.288;10.458;2023-05-14T01:58:40;12.70;76.10
7240;DHT22;3661;53.288;10.458;2023-05-14T02:01:14;12.70;76.20
7240;DHT22;3661;53.288;10.458;2023-05-14T02:03:48;12.60;76.20
7240;DHT22;3661;53.288;10.458;2023-05-14T02:06:20;12.60;76.30
7240;DHT22;3661;53.288;10.458;2023-05-14T02:08:54;12.60;76.40
7240;DHT22;3661;53.288;10.458;2023-05-14T02:11:26;12.50;76.40
7240;DHT22;3661;53.288;10.458;2023-05-14T02:14:00;12.50;76.40
7240;DHT22;3661;53.288;10.458;2023-05-14T02:16:33;12.50;76.50
7240;DHT22;3661;53.288;10.458;2023-05-14T02:19:09;12.40;76.50
7240;DHT22;3661;53.288;10.458;2023-05-14T02:21:41;12.40;76.60
7240;DHT22;3661;53.288;10.458;2023-05-14T02:24:15;12.30;76.50
7240;DHT22;3661;53.288;10.458;2023-05-14T02:26:50;12.30;76.60
7240;DHT22;3661;53.288;10.458;2023-05-14T02:29:22;12.20;76.60
7240;DHT22;3661;53.288;10.458;2023-05-14T02:31:55;12.20;76.70
7240;DHT22;3661;53.288;10.458;2023-05-14T02:34:27;12.10;76.80
7240;DHT22;3661;53.288;10.458;2023-05-14T02:37:03;12.10;76.90
7240;DHT22;3661;53.288;10.458;2023-05-14T02:39:37;12.00;76.80
7240;DHT22;3661;53.288;10.458;2023-05-14T02:42:13;12.00;76.80
7240;DHT22;3661;53.288;10.458;2023-05-14T02:44:45;11.90;76.80
7240;DHT22;3661;53.288;10.458;2023-05-14T02:47:18;11.90;76.90
7240;DHT22;3661;53.288;10.458;2023-05-14T02:49:52;11.80;76.90
7240;DHT22;3661;53.288;10.458;2023-05-14T02:52:24;11.80;76.90
7240;DHT22;3661;53.288;10.458;2023-05-14T02:54:58;11.80;76.90
7240;DHT22;3661;53.288;10.458;2023-05-14T02:57:32;11.70;77.00
7240;DHT22;3661;53.288;10.458;2023-05-14T03:00:05;11.70;77.00
7240;DHT22;3661;53.288;10.458;2023-05-14T03:02:38;11.60;76.90
7240;DHT22;3661;53.288;10.458;2023-05-14T03:05:13;11.60;77.00
7240;DHT22;3661;53.288;10.458;2023-05-14T03:07:45;11.50;76.90
7240;DHT22;3661;53.288;10.458;2023-05-14T03:10:19;11.50;77.00
7240;DHT22;3661;53.288;10.458;2023-05-14T03:12:51;11.40;77.00
7240;DHT22;3661;53.288;10.458;2023-05-14T03:15:23;11.40;77.00
7240;DHT22;3661;53.288;10.458;2023-05-14T03:17:57;11.40;77.00
7240;DHT22;3661;53.288;10.458;2023-05-14T03:20:29;11.30;77.10
7240;DHT22;3661;53.288;10.458;2023-05-14T03:23:02;11.30;77.10
7240;DHT22;3661;53.288;10.458;2023-05-14T03:25:35;11.30;77.10
7240;DHT22;3661;53.288;10.458;2023-05-14T03:28:09;11.20;77.10
7240;DHT22;3661;53.288;10.458;2023-05-14T03:30:42;11.20;77.20
7240;DHT22;3661;53.288;10.458;2023-05-14T03:33:15;11.10;77.10
7240;DHT22;3661;53.288;10.458;2023-05-14T03:35:48;11.10;77.20
7240;DHT22;3661;53.288;10.458;2023-05-14T03:38:21;11.10;77.30
7240;DHT22;3661;53.288;10.458;2023-05-14T03:40:54;11.00;77.30
7240;DHT22;3661;53.288;10.458;2023-05-14T03:43:29;11.00;77.30
7240;DHT22;3661;53.288;10.458;2023-05-14T03:46:02;11.00;77.40
7240;DHT22;3661;53.288;10.458;2023-05-14T03:48:36;10.90;77.30
7240;DHT22;3661;53.288;10.458;2023-05-14T03:51:08;10.90;77.40
7240;DHT22;3661;53.288;10.458;2023-05-14T03:53:43;10.90;77.40
7240;DHT22;3661;53.288;10.458;2023-05-14T03:56:17;10.90;77.50
7240;DHT22;3661;53.288;10.458;2023-05-14T03:58:52;10.80;77.50
7240;DHT22;3661;53.288;10.458;2023-05-14T04:01:25;10.80;77.60
7240;DHT22;3661;53.288;10.458;2023-05-14T04:03:57;10.80;77.60
7240;DHT22;3661;53.288;10.458;2023-05-14T04:06:29;10.70;77.60
7240;DHT22;3661;53.288;10.458;2023-05-14T04:09:02;10.70;77.60
7240;DHT22;3661;53.288;10.458;2023-05-14T04:11:36;10.70;77.60
7240;DHT22;3661;53.288;10.458;2023-05-14T04:14:08;10.70;77.60
7240;DHT22;3661;53.288;10.458;2023-05-14T04:16:40;10.80;77.50
7240;DHT22;3661;53.288;10.458;2023-05-14T04:19:13;10.80;77.50
7240;DHT22;3661;53.288;10.458;2023-05-14T04:21:46;10.80;77.60
7240;DHT22;3661;53.288;10.458;2023-05-14T04:24:19;10.90;77.90
7240;DHT22;3661;53.288;10.458;2023-05-14T04:26:56;10.80;77.80
7240;DHT22;3661;53.288;10.458;2023-05-14T04:29:29;10.80;77.90
7240;DHT22;3661;53.288;10.458;2023-05-14T04:32:03;10.80;78.00
7240;DHT22;3661;53.288;10.458;2023-05-14T04:34:37;10.80;78.20
7240;DHT22;3661;53.288;10.458;2023-05-14T04:37:11;10.90;78.40
7240;DHT22;3661;53.288;10.458;2023-05-14T04:39:44;10.90;78.60
7240;DHT22;3661;53.288;10.458;2023-05-14T04:42:21;10.90;78.90
7240;DHT22;3661;53.288;10.458;2023-05-14T04:44:53;11.00;79.30
7240;DHT22;3661;53.288;10.458;2023-05-14T04:47:25;11.00;79.30
7240;DHT22;3661;53.288;10.458;2023-05-14T04:49:58;11.00;79.10
7240;DHT22;3661;53.288;10.458;2023-05-14T04:52:31;11.10;79.10
7240;DHT22;3661;53.288;10.458;2023-05-14T04:55:06;11.10;78.90
7240;DHT22;3661;53.288;10.458;2023-05-14T04:57:41;11.20;78.90
7240;DHT22;3661;53.288;10.458;2023-05-14T05:00:13;11.20;79.00
7240;DHT22;3661;53.288;10.458;2023-05-14T05:02:46;11.20;79.20
7240;DHT22;3661;53.288;10.458;2023-05-14T05:05:18;11.30;79.40
7240;DHT22;3661;53.288;10.458;2023-05-14T05:07:50;11.30;79.40
7240;DHT22;3661;53.288;10.458;2023-05-14T05:10:25;11.30;79.10
7240;DHT22;3661;53.288;10.458;2023-05-14T05:13:02;11.30;79.00
7240;DHT22;3661;53.288;10.458;2023-05-14T05:15:35;11.30;79.00
7240;DHT22;3661;53.288;10.458;2023-05-14T05:18:07;11.40;78.90
7240;DHT22;3661;53.288;10.458;2023-05-14T05:20:42;11.40;78.70
7240;DHT22;3661;53.288;10.458;2023-05-14T05:23:14;11.40;78.80
7240;DHT22;3661;53.288;10.458;2023-05-14T05:25:46;11.50;79.00
7240;DHT22;3661;53.288;10.458;2023-05-14T05:28:20;11.50;79.00
7240;DHT22;3661;53.288;10.458;2023-05-14T05:30:52;11.50;78.90
7240;DHT22;3661;53.288;10.458;2023-05-14T05:33:24;11.60;79.10
7240;DHT22;3661;53.288;10.458;2023-05-14T05:35:57;11.60;79.30
7240;DHT22;3661;53.288;10.458;2023-05-14T05:38:29;11.60;79.40
7240;DHT22;3661;53.288;10.458;2023-05-14T05:41:01;11.70;79.60
7240;DHT22;3661;53.288;10.458;2023-05-14T05:43:35;11.70;79.70
7240;DHT22;3661;53.288;10.458;2023-05-14T05:46:07;11.80;79.90
7240;DHT22;3661;53.288;10.458;2023-05-14T05:48:39;11.80;79.90
7240;DHT22;3661;53.288;10.458;2023-05-14T05:51:11;11.90;80.10
7240;DHT22;3661;53.288;10.458;2023-05-14T05:53:43;11.90;80.10
7240;DHT22;3661;53.288;10.458;2023-05-14T05:56:15;12.00;80.30
7240;DHT22;3661;53.288;10.458;2023-05-14T05:58:49;12.00;80.40
7240;DHT22;3661;53.288;10.458;2023-05-14T06:01:22;12.10;81.00
7240;DHT22;3661;53.288;10.458;2023-05-14T06:03:55;12.20;82.10
7240;DHT22;3661;53.288;10.458;2023-05-14T06:06:30;12.30;81.90
7240;DHT22;3661;53.288;10.458;2023-05-14T06:09:02;12.30;82.80
7240;DHT22;3661;53.288;10.458;2023-05-14T06:11:36;12.40;83.20
7240;DHT22;3661;53.288;10.458;2023-05-14T06:14:12;12.50;83.60
7240;DHT22;3661;53.288;10.458;2023-05-14T06:16:44;12.60;83.90
7240;DHT22;3661;53.288;10.458;2023-05-14T06:19:16;12.70;83.80
7240;DHT22;3661;53.288;10.458;2023-05-14T06:21:48;12.80;83.80
7240;DHT22;3661;53.288;10.458;2023-05-14T06:24:21;12.90;83.70
7240;DHT22;3661;53.288;10.458;2023-05-14T06:26:53;13.00;83.90
7240;DHT22;3661;53.288;10.458;2023-05-14T06:29:26;13.10;84.30
7240;DHT22;3661;53.288;10.458;2023-05-14T06:32:01;13.20;84.30
7240;DHT22;3661;53.288;10.458;2023-05-14T06:34:33;13.30;84.30
7240;DHT22;3661;53.288;10.458;2023-05-14T06:37:05;13.40;84.20
7240;DHT22;3661;53.288;10.458;2023-05-14T06:39:37;13.60;84.50
7240;DHT22;3661;53.288;10.458;2023-05-14T06:42:09;13.70;85.60
7240;DHT22;3661;53.288;10.458;2023-05-14T06:44:43;13.80;86.00
7240;DHT22;3661;53.288;10.458;2023-05-14T06:47:15;13.90;86.00
7240;DHT22;3661;53.288;10.458;2023-05-14T06:49:50;14.10;87.10
7240;DHT22;3661;53.288;10.458;2023-05-14T06:52:22;14.20;88.00
7240;DHT22;3661;53.288;10.458;2023-05-14T06:54:54;14.30;88.50
7240;DHT22;3661;53.288;10.458;2023-05-14T06:57:26;14.40;88.90
7240;DHT22;3661;53.288;10.458;2023-05-14T06:59:59;14.50;89.90
7240;DHT22;3661;53.288;10.458;2023-05-14T07:02:31;14.60;90.20
7240;DHT22;3661;53.288;10.458;2023-05-14T07:05:04;14.70;90.10
7240;DHT22;3661;53.288;10.458;2023-05-14T07:07:36;14.80;90.00
7240;DHT22;3661;53.288;10.458;2023-05-14T07:10:08;14.90;89.90
7240;DHT22;3661;53.288;10.458;2023-05-14T07:12:40;15.00;90.00
7240;DHT22;3661;53.288;10.458;2023-05-14T07:15:14;15.00;90.10
7240;DHT22;3661;53.288;10.458;2023-05-14T07:17:46;15.10;90.00
7240;DHT22;3661;53.288;10.458;2023-05-14T07:20:18;15.20;89.90
7240;DHT22;3661;53.288;10.458;2023-05-14T07:22:52;15.30;89.80
7240;DHT22;3661;53.288;10.458;2023-05-14T07:25:24;15.40;90.00
7240;DHT22;3661;53.288;10.458;2023-05-14T07:27:56;15.50;89.80
7240;DHT22;3661;53.288;10.458;2023-05-14T07:30:29;15.60;90.20
7240;DHT22;3661;53.288;10.458;2023-05-14T07:33:01;15.70;90.40
7240;DHT22;3661;53.288;10.458;2023-05-14T07:35:33;15.70;90.30
7240;DHT22;3661;53.288;10.458;2023-05-14T07:38:06;15.80;90.20
7240;DHT22;3661;53.288;10.458;2023-05-14T07:40:40;15.90;90.20
7240;DHT22;3661;53.288;10.458;2023-05-14T07:43:13;16.10;90.60
7240;DHT22;3661;53.288;10.458;2023-05-14T07:45:50;16.30;91.00
7240;DHT22;3661;53.288;10.458;2023-05-14T07:48:22;16.50;91.20
7240;DHT22;3661;53.288;10.458;2023-05-14T07:50:55;16.60;91.40
7240;DHT22;3661;53.288;10.458;2023-05-14T07:53:27;16.80;91.50
7240;DHT22;3661;53.288;10.458;2023-05-14T07:55:59;16.90;91.50
7240;DHT22;3661;53.288;10.458;2023-05-14T07:58:31;17.10;91.60
7240;DHT22;3661;53.288;10.458;2023-05-14T08:01:06;17.20;91.70
7240;DHT22;3661;53.288;10.458;2023-05-14T08:03:38;17.40;91.70
7240;DHT22;3661;53.288;10.458;2023-05-14T08:06:10;17.50;91.50
7240;DHT22;3661;53.288;10.458;2023-05-14T08:08:42;17.60;91.30
7240;DHT22;3661;53.288;10.458;2023-05-14T08:11:14;17.70;91.40
7240;DHT22;3661;53.288;10.458;2023-05-14T08:13:46;17.80;91.30
7240;DHT22;3661;53.288;10.458;2023-05-14T08:16:22;17.90;91.30
7240;DHT22;3661;53.288;10.458;2023-05-14T08:18:56;18.00;91.20
7240;DHT22;3661;53.288;10.458;2023-05-14T08:21:28;18.20;91.10
7240;DHT22;3661;53.288;10.458;2023-05-14T08:24:00;18.30;91.10
7240;DHT22;3661;53.288;10.458;2023-05-14T08:26:34;18.40;91.00
7240;DHT22;3661;53.288;10.458;2023-05-14T08:29:07;18.50;90.80
7240;DHT22;3661;53.288;10.458;2023-05-14T08:31:40;18.60;90.70
7240;DHT22;3661;53.288;10.458;2023-05-14T08:34:13;18.80;90.80
7240;DHT22;3661;53.288;10.458;2023-05-14T08:36:45;18.90;90.70
7240;DHT22;3661;53.288;10.458;2023-05-14T08:39:17;19.10;90.50
7240;DHT22;3661;53.288;10.458;2023-05-14T08:41:49;19.20;90.20
7240;DHT22;3661;53.288;10.458;2023-05-14T08:44:30;19.30;89.60
7240;DHT22;3661;53.288;10.458;2023-05-14T08:47:06;19.60;89.60
7240;DHT22;3661;53.288;10.458;2023-05-14T08:49:40;19.70;89.50
7240;DHT22;3661;53.288;10.458;2023-05-14T08:52:12;19.90;87.90
7240;DHT22;3661;53.288;10.458;2023-05-14T08:54:47;20.00;87.10
7240;DHT22;3661;53.288;10.458;2023-05-14T08:57:22;20.10;86.80
7240;DHT22;3661;53.288;10.458;2023-05-14T08:59:56;20.30;86.40
7240;DHT22;3661;53.288;10.458;2023-05-14T09:02:30;20.50;86.00
7240;DHT22;3661;53.288;10.458;2023-05-14T09:05:02;20.60;85.30
7240;DHT22;3661;53.288;10.458;2023-05-14T09:07:35;20.70;84.60
7240;DHT22;3661;53.288;10.458;2023-05-14T09:10:08;20.90;84.70
7240;DHT22;3661;53.288;10.458;2023-05-14T09:12:41;21.00;84.80
7240;DHT22;3661;53.288;10.458;2023-05-14T09:15:13;21.20;84.50
7240;DHT22;3661;53.288;10.458;2023-05-14T09:17:46;21.40;83.70
7240;DHT22;3661;53.288;10.458;2023-05-14T09:20:19;21.60;83.40
7240;DHT22;3661;53.288;10.458;2023-05-14T09:22:52;21.70;82.90
7240;DHT22;3661;53.288;10.458;2023-05-14T09:25:26;21.90;82.70
7240;DHT22;3661;53.288;10.458;2023-05-14T09:27:58;22.10;81.90
7240;DHT22;3661;53.288;10.458;2023-05-14T09:30:30;22.20;81.20
7240;DHT22;3661;53.288;10.458;2023-05-14T09:33:05;22.40;81.20
7240;DHT22;3661;53.288;10.458;2023-05-14T09:35:40;22.60;81.30
7240;DHT22;3661;53.288;10.458;2023-05-14T09:38:12;22.80;80.90
7240;DHT22;3661;53.288;10.458;2023-05-14T09:40:45;23.00;79.80
7240;DHT22;3661;53.288;10.458;2023-05-14T09:43:17;23.10;79.10
7240;DHT22;3661;53.288;10.458;2023-05-14T09:45:51;23.20;77.90
7240;DHT22;3661;53.288;10.458;2023-05-14T09:48:27;23.40;76.00
7240;DHT22;3661;53.288;10.458;2023-05-14T09:50:59;23.40;74.60
7240;DHT22;3661;53.288;10.458;2023-05-14T09:53:32;23.50;73.70
7240;DHT22;3661;53.288;10.458;2023-05-14T09:56:05;23.50;73.80
7240;DHT22;3661;53.288;10.458;2023-05-14T09:58:37;23.60;74.00
7240;DHT22;3661;53.288;10.458;2023-05-14T10:01:09;23.70;74.50
7240;DHT22;3661;53.288;10.458;2023-05-14T10:03:43;23.90;74.70
7240;DHT22;3661;53.288;10.458;2023-05-14T10:06:21;23.90;74.40
7240;DHT22;3661;53.288;10.458;2023-05-14T10:08:55;24.00;74.60
7240;DHT22;3661;53.288;10.458;2023-05-14T10:11:30;24.10;74.40
7240;DHT22;3661;53.288;10.458;2023-05-14T10:14:07;24.20;72.40
7240;DHT22;3661;53.288;10.458;2023-05-14T10:16:41;24.20;71.30
7240;DHT22;3661;53.288;10.458;2023-05-14T10:19:16;24.20;71.50
7240;DHT22;3661;53.288;10.458;2023-05-14T10:21:56;24.20;71.10
7240;DHT22;3661;53.288;10.458;2023-05-14T10:24:32;24.20;70.20
7240;DHT22;3661;53.288;10.458;2023-05-14T10:27:05;24.20;70.20
7240;DHT22;3661;53.288;10.458;2023-05-14T10:29:37;24.20;69.80
7240;DHT22;3661;53.288;10.458;2023-05-14T10:32:09;24.10;69.80
7240;DHT22;3661;53.288;10.458;2023-05-14T10:34:44;24.10;69.50
7240;DHT22;3661;53.288;10.458;2023-05-14T10:37:19;24.00;69.30
7240;DHT22;3661;53.288;10.458;2023-05-14T10:39:52;24.00;69.40
7240;DHT22;3661;53.288;10.458;2023-05-14T10:42:26;23.90;69.40
7240;DHT22;3661;53.288;10.458;2023-05-14T10:45:00;23.80;69.30
7240;DHT22;3661;53.288;10.458;2023-05-14T10:47:33;23.70;69.50
7240;DHT22;3661;53.288;10.458;2023-05-14T10:50:10;23.60;69.60
7240;DHT22;3661;53.288;10.458;2023-05-14T10:52:44;23.50;69.50
7240;DHT22;3661;53.288;10.458;2023-05-14T10:55:16;23.40;69.50
7240;DHT22;3661;53.288;10.458;2023-05-14T10:57:48;23.30;69.50
7240;DHT22;3661;53.288;10.458;2023-05-14T11:00:24;23.20;69.60
7240;DHT22;3661;53.288;10.458;2023-05-14T11:02:57;23.10;69.40
7240;DHT22;3661;53.288;10.458;2023-05-14T11:05:32;23.10;69.30
7240;DHT22;3661;53.288;10.458;2023-05-14T11:08:07;23.00;70.00
7240;DHT22;3661;53.288;10.458;2023-05-14T11:10:41;22.90;69.90
7240;DHT22;3661;53.288;10.458;2023-05-14T11:13:13;22.90;70.40
7240;DHT22;3661;53.288;10.458;2023-05-14T11:15:48;22.90;70.80
7240;DHT22;3661;53.288;10.458;2023-05-14T11:18:28;22.80;70.80
7240;DHT22;3661;53.288;10.458;2023-05-14T11:21:06;22.80;70.50
7240;DHT22;3661;53.288;10.458;2023-05-14T11:23:38;22.80;69.90
7240;DHT22;3661;53.288;10.458;2023-05-14T11:26:10;22.80;70.10
7240;DHT22;3661;53.288;10.458;2023-05-14T11:28:43;22.70;70.00
7240;DHT22;3661;53.288;10.458;2023-05-14T11:31:16;22.70;70.20
7240;DHT22;3661;53.288;10.458;2023-05-14T11:33:48;22.60;70.30
7240;DHT22;3661;53.288;10.458;2023-05-14T11:36:24;22.60;69.80
7240;DHT22;3661;53.288;10.458;2023-05-14T11:38:56;22.60;69.70
7240;DHT22;3661;53.288;10.458;2023-05-14T11:41:28;22.50;69.50
7240;DHT22;3661;53.288;10.458;2023-05-14T11:44:01;22.50;69.30
7240;DHT22;3661;53.288;10.458;2023-05-14T11:46:34;22.50;69.10
7240;DHT22;3661;53.288;10.458;2023-05-14T11:49:06;22.40;69.00
7240;DHT22;3661;53.288;10.458;2023-05-14T11:51:39;22.30;68.60
7240;DHT22;3661;53.288;10.458;2023-05-14T11:54:13;22.30;68.60
7240;DHT22;3661;53.288;10.458;2023-05-14T11:56:49;22.20;68.70
7240;DHT22;3661;53.288;10.458;2023-05-14T11:59:23;22.20;69.20
7240;DHT22;3661;53.288;10.458;2023-05-14T12:01:55;22.20;69.40
7240;DHT22;3661;53.288;10.458;2023-05-14T12:04:28;22.10;70.00
7240;DHT22;3661;53.288;10.458;2023-05-14T12:07:07;22.10;70.20
7240;DHT22;3661;53.288;10.458;2023-05-14T12:09:41;22.10;70.50
7240;DHT22;3661;53.288;10.458;2023-05-14T12:12:20;22.10;69.20
7240;DHT22;3661;53.288;10.458;2023-05-14T12:14:53;22.00;69.20
7240;DHT22;3661;53.288;10.458;2023-05-14T12:17:25;22.10;69.90
7240;DHT22;3661;53.288;10.458;2023-05-14T12:19:58;22.10;70.40
7240;DHT22;3661;53.288;10.458;2023-05-14T12:22:34;22.10;70.70
7240;DHT22;3661;53.288;10.458;2023-05-14T12:25:10;22.10;70.70
7240;DHT22;3661;53.288;10.458;2023-05-14T12:27:46;22.10;70.10
7240;DHT22;3661;53.288;10.458;2023-05-14T12:30:19;22.10;69.80
7240;DHT22;3661;53.288;10.458;2023-05-14T12:32:51;22.10;69.80
7240;DHT22;3661;53.288;10.458;2023-05-14T12:35:23;22.10;69.80
7240;DHT22;3661;53.288;10.458;2023-05-14T12:37:57;22.20;70.40
7240;DHT22;3661;53.288;10.458;2023-05-14T12:40:29;22.20;70.50
7240;DHT22;3661;53.288;10.458;2023-05-14T12:43:01;22.20;70.40
7240;DHT22;3661;53.288;10.458;2023-05-14T12:45:34;22.30;70.10
7240;DHT22;3661;53.288;10.458;2023-05-14T12:48:06;22.30;69.20
7240;DHT22;3661;53.288;10.458;2023-05-14T12:50:38;22.40;69.20
7240;DHT22;3661;53.288;10.458;2023-05-14T12:53:11;22.40;69.50
7240;DHT22;3661;53.288;10.458;2023-05-14T12:55:55;22.50;69.70
7240;DHT22;3661;53.288;10.458;2023-05-14T12:58:27;22.50;70.00
7240;DHT22;3661;53.288;10.458;2023-05-14T13:00:59;22.50;68.90
7240;DHT22;3661;53.288;10.458;2023-05-14T13:03:31;22.50;68.40
7240;DHT22;3661;53.288;10.458;2023-05-14T13:06:03;22.50;68.30
7240;DHT22;3661;53.288;10.458;2023-05-14T13:08:36;22.50;68.20
7240;DHT22;3661;53.288;10.458;2023-05-14T13:11:09;22.50;68.20
7240;DHT22;3661;53.288;10.458;2023-05-14T13:13:41;22.60;68.50
7240;DHT22;3661;53.288;10.458;2023-05-14T13:16:13;22.60;69.00
7240;DHT22;3661;53.288;10.458;2023-05-14T13:18:46;22.70;69.30
7240;DHT22;3661;53.288;10.458;2023-05-14T13:21:18;22.80;69.60
7240;DHT22;3661;53.288;10.458;2023-05-14T13:23:50;22.80;69.20
7240;DHT22;3661;53.288;10.458;2023-05-14T13:26:23;22.90;69.20
7240;DHT22;3661;53.288;10.458;2023-05-14T13:28:57;23.00;69.50
7240;DHT22;3661;53.288;10.458;2023-05-14T13:31:30;23.10;69.10
7240;DHT22;3661;53.288;10.458;2023-05-14T13:34:02;23.20;69.40
7240;DHT22;3661;53.288;10.458;2023-05-14T13:36:34;23.40;69.30
7240;DHT22;3661;53.288;10.458;2023-05-14T13:39:09;23.50;68.10
7240;DHT22;3661;53.288;10.458;2023-05-14T13:41:42;23.60;67.50
7240;DHT22;3661;53.288;10.458;2023-05-14T13:44:15;23.70;66.50
7240;DHT22;3661;53.288;10.458;2023-05-14T13:46:47;23.90;66.20
7240;DHT22;3661;53.288;10.458;2023-05-14T13:49:19;24.00;66.20
7240;DHT22;3661;53.288;10.458;2023-05-14T13:51:51;24.10;65.20
7240;DHT22;3661;53.288;10.458;2023-05-14T13:54:23;24.20;65.10
7240;DHT22;3661;53.288;10.458;2023-05-14T13:56:57;24.20;65.50
7240;DHT22;3661;53.288;10.458;2023-05-14T13:59:29;24.40;65.30
7240;DHT22;3661;53.288;10.458;2023-05-14T14:02:01;24.40;64.70
7240;DHT22;3661;53.288;10.458;2023-05-14T14:04:33;24.50;64.20
7240;DHT22;3661;53.288;10.458;2023-05-14T14:07:05;24.60;64.70
7240;DHT22;3661;53.288;10.458;2023-05-14T14:09:38;24.70;66.00
7240;DHT22;3661;53.288;10.458;2023-05-14T14:12:12;24.80;66.00
7240;DHT22;3661;53.288;10.458;2023-05-14T14:14:44;24.90;65.40
7240;DHT22;3661;53.288;10.458;2023-05-14T14:17:16;25.00;65.40
7240;DHT22;3661;53.288;10.458;2023-05-14T14:19:48;25.00;64.80
7240;DHT22;3661;53.288;10.458;2023-05-14T14:22:20;25.00;65.20
7240;DHT22;3661;53.288;10.458;2023-05-14T14:24:52;25.10;65.30
7240;DHT22;3661;53.288;10.458;2023-05-14T14:27:26;25.10;65.30
7240;DHT22;3661;53.288;10.458;2023-05-14T14:30:00;25.10;64.90
7240;DHT22;3661;53.288;10.458;2023-05-14T14:32:32;25.10;64.00
7240;DHT22;3661;53.288;10.458;2023-05-14T14:35:05;25.10;63.30
7240;DHT22;3661;53.288;10.458;2023-05-14T14:37:37;25.00;63.10
7240;DHT22;3661;53.288;10.458;2023-05-14T14:40:11;25.00;63.20
7240;DHT22;3661;53.288;10.458;2023-05-14T14:42:44;25.00;63.30
7240;DHT22;3661;53.288;10.458;2023-05-14T14:45:16;24.90;62.50
7240;DHT22;3661;53.288;10.458;2023-05-14T14:47:48;24.90;62.40
7240;DHT22;3661;53.288;10.458;2023-05-14T14:50:20;24.80;62.60
7240;DHT22;3661;53.288;10.458;2023-05-14T14:52:52;24.80;62.60
7240;DHT22;3661;53.288;10.458;2023-05-14T14:55:24;24.80;62.40
7240;DHT22;3661;53.288;10.458;2023-05-14T14:57:58;24.80;61.80
7240;DHT22;3661;53.288;10.458;2023-05-14T15:00:30;24.70;62.10
7240;DHT22;3661;53.288;10.458;2023-05-14T15:03:02;24.70;62.60
7240;DHT22;3661;53.288;10.458;2023-05-14T15:05:34;24.60;62.60
7240;DHT22;3661;53.288;10.458;2023-05-14T15:08:06;24.60;62.00
7240;DHT22;3661;53.288;10.458;2023-05-14T15:10:39;24.50;61.80
7240;DHT22;3661;53.288;10.458;2023-05-14T15:13:12;24.50;62.10
7240;DHT22;3661;53.288;10.458;2023-05-14T15:15:44;24.40;62.10
7240;DHT22;3661;53.288;10.458;2023-05-14T15:18:16;24.50;62.50
7240;DHT22;3661;53.288;10.458;2023-05-14T15:20:49;24.50;62.90
7240;DHT22;3661;53.288;10.458;2023-05-14T15:23:22;24.40;62.50
7240;DHT22;3661;53.288;10.458;2023-05-14T15:25:54;24.40;62.50
7240;DHT22;3661;53.288;10.458;2023-05-14T15:28:28;24.40;62.80
7240;DHT22;3661;53.288;10.458;2023-05-14T15:31:00;24.40;63.10
7240;DHT22;3661;53.288;10.458;2023-05-14T15:33:33;24.50;63.50
7240;DHT22;3661;53.288;10.458;2023-05-14T15:36:05;24.60;63.50
7240;DHT22;3661;53.288;10.458;2023-05-14T15:38:37;24.60;63.00
7240;DHT22;3661;53.288;10.458;2023-05-14T15:41:11;24.60;62.70
7240;DHT22;3661;53.288;10.458;2023-05-14T15:43:44;24.60;63.00
7240;DHT22;3661;53.288;10.458;2023-05-14T15:46:18;24.60;63.80
7240;DHT22;3661;53.288;10.458;2023-05-14T15:48:51;24.50;64.20
7240;DHT22;3661;53.288;10.458;2023-05-14T15:51:23;24.40;64.70
7240;DHT22;3661;53.288;10.458;2023-05-14T15:53:55;24.20;65.30
7240;DHT22;3661;53.288;10.458;2023-05-14T15:56:27;24.10;65.90
7240;DHT22;3661;53.288;10.458;2023-05-14T15:59:00;24.00;65.90
7240;DHT22;3661;53.288;10.458;2023-05-14T16:01:33;23.90;65.80
7240;DHT22;3661;53.288;10.458;2023-05-14T16:04:05;23.90;66.30
7240;DHT22;3661;53.288;10.458;2023-05-14T16:06:37;23.70;66.70
7240;DHT22;3661;53.288;10.458;2023-05-14T16:09:11;23.70;66.40
7240;DHT22;3661;53.288;10.458;2023-05-14T16:11:44;23.60;66.10
7240;DHT22;3661;53.288;10.458;2023-05-14T16:14:17;23.60;66.20
7240;DHT22;3661;53.288;10.458;2023-05-14T16:16:50;23.50;66.50
7240;DHT22;3661;53.288;10.458;2023-05-14T16:19:22;23.60;66.80
7240;DHT22;3661;53.288;10.458;2023-05-14T16:21:54;23.70;67.10